createdAt,value
2018-07-22T00:00:54.886Z,976.7
2018-07-22T00:01:56.163Z,976.7
2018-07-22T00:02:57.442Z,976.7
2018-07-22T00:03:58.631Z,976.7
2018-07-22T00:04:59.990Z,976.8
2018-07-22T00:06:01.284Z,976.7
2018-07-22T00:07:02.491Z,976.8
2018-07-22T00:08:06.655Z,976.7
2018-07-22T00:09:07.928Z,976.7
2018-07-22T00:10:10.192Z,976.7
2018-07-22T00:11:11.443Z,976.7
2018-07-22T00:12:17.525Z,976.7
2018-07-22T00:13:18.734Z,976.7
2018-07-22T00:14:19.920Z,976.7
2018-07-22T00:15:21.171Z,976.7
2018-07-22T00:16:22.366Z,976.7
2018-07-22T00:17:23.787Z,976.7
2018-07-22T00:18:24.980Z,976.7
2018-07-22T00:19:26.343Z,976.8
2018-07-22T00:20:27.590Z,976.7
2018-07-22T00:21:28.816Z,976.8
2018-07-22T00:22:30.213Z,976.8
2018-07-22T00:23:32.751Z,976.6
2018-07-22T00:24:35.184Z,976.8
2018-07-22T00:25:36.423Z,976.8
2018-07-22T00:26:42.630Z,976.7
2018-07-22T00:27:46.356Z,976.6
2018-07-22T00:28:47.579Z,976.7
2018-07-22T00:29:48.800Z,976.8
2018-07-22T00:30:50.079Z,976.7
2018-07-22T00:31:51.310Z,976.8
2018-07-22T00:32:52.725Z,976.7
2018-07-22T00:33:53.919Z,976.8
2018-07-22T00:34:57.536Z,976.8
2018-07-22T00:35:58.763Z,976.8
2018-07-22T00:37:00.960Z,976.7
2018-07-22T00:38:02.505Z,976.7
2018-07-22T00:39:03.758Z,976.7
2018-07-22T00:40:05.954Z,976.7
2018-07-22T00:41:07.216Z,976.7
2018-07-22T00:42:08.604Z,976.7
2018-07-22T00:43:11.982Z,976.7
2018-07-22T00:44:13.153Z,976.8
2018-07-22T00:45:14.344Z,976.7
2018-07-22T00:46:18.980Z,976.6
2018-07-22T00:47:20.793Z,976.7
2018-07-22T00:48:22.055Z,976.7
2018-07-22T00:49:23.366Z,976.7
2018-07-22T00:50:24.579Z,976.7
2018-07-22T00:51:25.844Z,976.7
2018-07-22T00:52:27.256Z,976.7
2018-07-22T00:53:28.464Z,976.7
2018-07-22T00:54:29.659Z,976.6
2018-07-22T00:55:32.194Z,976.6
2018-07-22T00:56:33.402Z,976.6
2018-07-22T00:57:36.141Z,976.6
2018-07-22T00:58:37.371Z,976.5
2018-07-22T00:59:38.571Z,976.6
2018-07-22T01:00:39.795Z,976.6
2018-07-22T01:01:41.053Z,976.5
2018-07-22T01:02:42.264Z,976.6
2018-07-22T01:03:43.444Z,976.6
2018-07-22T01:04:44.643Z,976.6
2018-07-22T01:05:45.815Z,976.6
2018-07-22T01:06:47.251Z,976.6
2018-07-22T01:07:48.429Z,976.6
2018-07-22T01:08:49.619Z,976.6
2018-07-22T01:09:50.854Z,976.5
2018-07-22T01:10:54.599Z,976.7
2018-07-22T01:11:55.840Z,976.7
2018-07-22T01:12:58.268Z,976.7
2018-07-22T01:13:59.788Z,976.7
2018-07-22T01:15:01.969Z,976.7
2018-07-22T01:16:05.362Z,976.7
2018-07-22T01:17:06.600Z,976.7
2018-07-22T01:18:07.792Z,976.7
2018-07-22T01:19:08.989Z,976.7
2018-07-22T01:20:12.276Z,976.7
2018-07-22T01:21:13.480Z,976.7
2018-07-22T01:22:14.740Z,976.7
2018-07-22T01:23:21.859Z,976.8
2018-07-22T01:24:23.223Z,976.7
2018-07-22T01:25:24.467Z,976.8
2018-07-22T01:26:27.835Z,976.7
2018-07-22T01:27:29.239Z,976.8
2018-07-22T01:28:30.416Z,976.8
2018-07-22T01:29:31.599Z,976.8
2018-07-22T01:30:32.760Z,976.8
2018-07-22T01:31:33.936Z,976.7
2018-07-22T01:32:36.519Z,976.8
2018-07-22T01:33:39.920Z,976.8
2018-07-22T01:34:41.168Z,976.8
2018-07-22T01:35:42.352Z,976.8
2018-07-22T01:36:43.524Z,976.8
2018-07-22T01:37:44.720Z,976.7
2018-07-22T01:38:45.937Z,976.8
2018-07-22T01:39:47.143Z,976.8
2018-07-22T01:40:49.207Z,976.8
2018-07-22T01:41:50.415Z,976.8
2018-07-22T01:42:51.675Z,976.6
2018-07-22T01:43:52.847Z,976.8
2018-07-22T01:44:54.021Z,976.8
2018-07-22T01:45:55.193Z,976.8
2018-07-22T01:46:56.378Z,976.8
2018-07-22T01:47:58.474Z,976.8
2018-07-22T01:48:59.644Z,976.7
2018-07-22T01:50:03.267Z,976.7
2018-07-22T01:51:04.508Z,976.7
2018-07-22T01:52:05.703Z,976.7
2018-07-22T01:53:06.899Z,976.7
2018-07-22T01:54:08.127Z,976.8
2018-07-22T01:55:09.308Z,976.8
2018-07-22T01:56:10.477Z,976.8
2018-07-22T01:57:11.702Z,976.8
2018-07-22T01:58:13.219Z,976.8
2018-07-22T01:59:14.416Z,976.8
2018-07-22T02:00:15.590Z,976.8
2018-07-22T02:01:16.818Z,976.8
2018-07-22T02:02:18.327Z,976.8
2018-07-22T02:03:19.601Z,976.8
2018-07-22T02:04:20.790Z,976.8
2018-07-22T02:05:21.993Z,976.8
2018-07-22T02:06:23.421Z,976.8
2018-07-22T02:07:25.125Z,976.8
2018-07-22T02:08:26.370Z,976.8
2018-07-22T02:09:27.606Z,976.8
2018-07-22T02:10:28.791Z,976.8
2018-07-22T02:11:29.963Z,976.8
2018-07-22T02:12:31.276Z,976.8
2018-07-22T02:13:32.478Z,976.8
2018-07-22T02:14:33.660Z,976.8
2018-07-22T02:15:35.845Z,976.7
2018-07-22T02:16:37.046Z,976.8
2018-07-22T02:17:38.221Z,976.8
2018-07-22T02:18:39.643Z,976.8
2018-07-22T02:19:43.256Z,976.8
2018-07-22T02:20:44.730Z,976.8
2018-07-22T02:21:45.881Z,976.9
2018-07-22T02:22:47.064Z,976.9
2018-07-22T02:23:48.300Z,976.8
2018-07-22T02:24:49.481Z,976.8
2018-07-22T02:25:50.729Z,976.8
2018-07-22T02:26:51.931Z,976.8
2018-07-22T02:27:53.157Z,976.8
2018-07-22T02:28:54.355Z,976.8
2018-07-22T02:29:55.560Z,976.7
2018-07-22T02:30:56.730Z,976.8
2018-07-22T02:31:57.900Z,976.8
2018-07-22T02:33:01.973Z,976.5
2018-07-22T02:34:03.468Z,976.8
2018-07-22T02:35:07.148Z,976.7
2018-07-22T02:36:08.337Z,976.8
2018-07-22T02:37:09.844Z,976.8
2018-07-22T02:38:14.382Z,976.8
2018-07-22T02:39:15.628Z,976.8
2018-07-22T02:40:16.852Z,976.8
2018-07-22T02:41:18.319Z,976.8
2018-07-22T02:42:19.542Z,976.8
2018-07-22T02:43:20.752Z,976.8
2018-07-22T02:44:23.599Z,976.8
2018-07-22T02:45:28.851Z,976.7
2018-07-22T02:46:30.126Z,976.8
2018-07-22T02:47:32.255Z,976.8
2018-07-22T02:48:33.532Z,976.8
2018-07-22T02:49:34.805Z,976.8
2018-07-22T02:50:36.006Z,976.7
2018-07-22T02:51:37.281Z,976.7
2018-07-22T02:52:38.346Z,976.8
2018-07-22T02:53:39.529Z,976.8
2018-07-22T02:54:43.328Z,976.8
2018-07-22T02:55:44.530Z,976.8
2018-07-22T02:56:48.288Z,976.8
2018-07-22T02:57:49.459Z,976.8
2018-07-22T02:58:50.638Z,976.8
2018-07-22T02:59:52.866Z,976.8
2018-07-22T03:00:54.088Z,976.8
2018-07-22T03:01:55.287Z,976.8
2018-07-22T03:02:57.497Z,976.8
2018-07-22T03:03:58.757Z,976.8
2018-07-22T03:05:04.618Z,976.8
2018-07-22T03:06:05.851Z,976.8
2018-07-22T03:07:08.033Z,976.8
2018-07-22T03:08:11.657Z,976.8
2018-07-22T03:09:12.851Z,976.8
2018-07-22T03:10:14.629Z,976.8
2018-07-22T03:11:18.607Z,976.8
2018-07-22T03:12:19.812Z,976.8
2018-07-22T03:13:21.021Z,976.8
2018-07-22T03:14:24.392Z,976.8
2018-07-22T03:15:25.624Z,976.8
2018-07-22T03:16:26.827Z,976.8
2018-07-22T03:17:28.061Z,976.8
2018-07-22T03:18:29.607Z,976.8
2018-07-22T03:19:30.839Z,976.8
2018-07-22T03:20:32.569Z,976.8
2018-07-22T03:21:35.920Z,976.8
2018-07-22T03:22:37.106Z,976.8
2018-07-22T03:23:38.588Z,976.8
2018-07-22T03:24:39.755Z,976.8
2018-07-22T03:25:41.000Z,976.8
2018-07-22T03:26:42.279Z,976.8
2018-07-22T03:27:43.465Z,976.8
2018-07-22T03:28:44.679Z,976.8
2018-07-22T03:29:45.852Z,976.8
2018-07-22T03:30:47.090Z,976.8
2018-07-22T03:31:48.275Z,976.8
2018-07-22T03:32:49.447Z,976.9
2018-07-22T03:33:50.633Z,976.8
2018-07-22T03:34:51.866Z,976.9
2018-07-22T03:35:53.906Z,976.8
2018-07-22T03:36:56.089Z,976.8
2018-07-22T03:37:57.285Z,976.8
2018-07-22T03:38:58.489Z,976.8
2018-07-22T03:39:59.672Z,976.9
2018-07-22T03:41:01.296Z,976.8
2018-07-22T03:42:03.771Z,976.9
2018-07-22T03:43:04.947Z,976.9
2018-07-22T03:44:06.134Z,976.8
2018-07-22T03:45:07.330Z,976.9
2018-07-22T03:46:08.590Z,976.9
2018-07-22T03:47:09.785Z,976.8
2018-07-22T03:48:11.041Z,976.9
2018-07-22T03:49:12.311Z,976.9
2018-07-22T03:50:14.514Z,976.9
2018-07-22T03:51:16.625Z,976.9
2018-07-22T03:52:19.975Z,976.9
2018-07-22T03:53:27.204Z,976.9
2018-07-22T03:54:28.391Z,977
2018-07-22T03:55:29.566Z,977
2018-07-22T03:56:30.823Z,977
2018-07-22T03:57:32.026Z,977
2018-07-22T03:58:33.207Z,977
2018-07-22T03:59:34.422Z,977
2018-07-22T04:00:35.626Z,977.1
2018-07-22T04:01:39.590Z,976.9
2018-07-22T04:02:40.803Z,977.1
2018-07-22T04:03:44.397Z,977
2018-07-22T04:04:45.605Z,977
2018-07-22T04:05:46.809Z,977.1
2018-07-22T04:06:48.051Z,977
2018-07-22T04:07:49.260Z,977
2018-07-22T04:08:50.420Z,977.1
2018-07-22T04:09:51.852Z,977.1
2018-07-22T04:10:56.077Z,977.1
2018-07-22T04:11:57.590Z,977.1
2018-07-22T04:12:58.774Z,977.1
2018-07-22T04:14:00.805Z,977.1
2018-07-22T04:15:02.977Z,977.1
2018-07-22T04:16:04.169Z,977.1
2018-07-22T04:17:05.837Z,977.1
2018-07-22T04:18:07.046Z,977.1
2018-07-22T04:19:08.241Z,977.1
2018-07-22T04:20:09.448Z,977.1
2018-07-22T04:21:10.672Z,977.1
2018-07-22T04:22:12.137Z,977.1
2018-07-22T04:23:13.308Z,977.1
2018-07-22T04:24:15.793Z,977.1
2018-07-22T04:25:16.990Z,977
2018-07-22T04:26:19.187Z,977
2018-07-22T04:27:20.404Z,977.1
2018-07-22T04:28:21.877Z,977.1
2018-07-22T04:29:23.051Z,977
2018-07-22T04:30:24.227Z,977.1
2018-07-22T04:31:25.441Z,977.1
2018-07-22T04:32:29.002Z,977.1
2018-07-22T04:33:33.614Z,977.1
2018-07-22T04:34:37.252Z,977.1
2018-07-22T04:35:43.361Z,977.1
2018-07-22T04:36:44.555Z,977.1
2018-07-22T04:37:46.608Z,977.1
2018-07-22T04:38:50.201Z,977.1
2018-07-22T04:39:51.410Z,977.1
2018-07-22T04:40:52.687Z,977.1
2018-07-22T04:41:53.816Z,977.2
2018-07-22T04:42:55.027Z,977.2
2018-07-22T04:43:56.223Z,977.1
2018-07-22T04:44:58.391Z,977.2
2018-07-22T04:45:59.819Z,977.1
2018-07-22T04:47:02.017Z,977.2
2018-07-22T04:48:03.275Z,977.1
2018-07-22T04:49:05.740Z,977.2
2018-07-22T04:50:08.153Z,977.2
2018-07-22T04:51:09.388Z,977.2
2018-07-22T04:52:10.581Z,977.2
2018-07-22T04:53:15.036Z,977.2
2018-07-22T04:54:18.615Z,977.2
2018-07-22T04:55:22.357Z,977.2
2018-07-22T04:56:23.548Z,977.3
2018-07-22T04:57:27.173Z,977.3
2018-07-22T04:58:31.771Z,977.2
2018-07-22T04:59:39.034Z,977.3
2018-07-22T05:00:40.202Z,977.2
2018-07-22T05:01:41.412Z,977.3
2018-07-22T05:02:42.671Z,977.3
2018-07-22T05:03:43.908Z,977.3
2018-07-22T05:04:45.116Z,977.3
2018-07-22T05:05:46.286Z,977.3
2018-07-22T05:06:47.454Z,977.3
2018-07-22T05:07:48.746Z,977.3
2018-07-22T05:08:50.636Z,977.3
2018-07-22T05:09:51.829Z,977.3
2018-07-22T05:10:55.432Z,977.3
2018-07-22T05:11:56.615Z,977.3
2018-07-22T05:12:57.929Z,977.3
2018-07-22T05:13:59.191Z,977.3
2018-07-22T05:15:01.839Z,977.4
2018-07-22T05:16:04.314Z,977.4
2018-07-22T05:17:05.508Z,977.4
2018-07-22T05:18:06.682Z,977.4
2018-07-22T05:19:07.946Z,977.4
2018-07-22T05:20:10.181Z,977.4
2018-07-22T05:21:11.381Z,977.5
2018-07-22T05:22:12.910Z,977.4
2018-07-22T05:23:16.306Z,977.5
2018-07-22T05:24:17.526Z,977.5
2018-07-22T05:25:18.711Z,977.5
2018-07-22T05:26:19.876Z,977.5
2018-07-22T05:27:23.188Z,977.5
2018-07-22T05:28:25.336Z,977.6
2018-07-22T05:29:26.539Z,977.6
2018-07-22T05:30:30.196Z,977.6
2018-07-22T05:31:31.392Z,977.6
2018-07-22T05:32:32.609Z,977.6
2018-07-22T05:33:33.785Z,977.7
2018-07-22T05:34:35.008Z,977.6
2018-07-22T05:35:36.176Z,977.6
2018-07-22T05:36:37.999Z,977.6
2018-07-22T05:37:40.231Z,977.7
2018-07-22T05:38:42.647Z,977.6
2018-07-22T05:39:44.181Z,977.6
2018-07-22T05:40:46.376Z,977.7
2018-07-22T05:41:47.565Z,977.6
2018-07-22T05:42:48.738Z,977.7
2018-07-22T05:43:50.135Z,977.7
2018-07-22T05:44:51.336Z,977.7
2018-07-22T05:45:53.864Z,977.7
2018-07-22T05:46:55.075Z,977.6
2018-07-22T05:47:56.303Z,977.7
2018-07-22T05:48:58.887Z,977.7
2018-07-22T05:50:00.336Z,977.7
2018-07-22T05:51:01.582Z,977.7
2018-07-22T05:52:02.848Z,977.7
2018-07-22T05:53:04.031Z,977.7
2018-07-22T05:54:05.353Z,977.7
2018-07-22T05:55:06.691Z,977.7
2018-07-22T05:56:07.870Z,977.7
2018-07-22T05:57:09.071Z,977.7
2018-07-22T05:58:10.291Z,977.8
2018-07-22T05:59:11.771Z,977.8
2018-07-22T06:00:14.045Z,977.8
2018-07-22T06:01:15.229Z,977.8
2018-07-22T06:02:16.577Z,977.8
2018-07-22T06:03:17.850Z,977.8
2018-07-22T06:04:21.502Z,977.9
2018-07-22T06:05:27.647Z,977.9
2018-07-22T06:06:28.852Z,977.9
2018-07-22T06:07:30.068Z,977.9
2018-07-22T06:08:31.267Z,977.9
2018-07-22T06:09:32.720Z,978
2018-07-22T06:10:37.199Z,978
2018-07-22T06:11:38.378Z,978.1
2018-07-22T06:12:39.559Z,978
2018-07-22T06:13:40.760Z,978
2018-07-22T06:14:42.005Z,978.1
2018-07-22T06:15:44.276Z,978.1
2018-07-22T06:16:45.518Z,978.2
2018-07-22T06:17:46.703Z,978.2
2018-07-22T06:18:47.913Z,978.2
2018-07-22T06:19:52.214Z,978.2
2018-07-22T06:20:53.452Z,978.2
2018-07-22T06:21:54.647Z,978.3
2018-07-22T06:22:55.836Z,978.3
2018-07-22T06:24:00.922Z,978.3
2018-07-22T06:25:03.135Z,978.3
2018-07-22T06:26:04.843Z,978.3
2018-07-22T06:27:06.082Z,978.3
2018-07-22T06:28:08.635Z,978.4
2018-07-22T06:29:09.868Z,978.4
2018-07-22T06:30:13.858Z,978.3
2018-07-22T06:31:15.629Z,978.5
2018-07-22T06:32:16.820Z,978.5
2018-07-22T06:33:18.011Z,978.5
2018-07-22T06:34:19.275Z,978.4
2018-07-22T06:35:20.523Z,978.4
2018-07-22T06:36:24.470Z,978.3
2018-07-22T06:37:25.672Z,978.5
2018-07-22T06:38:26.846Z,978.6
2018-07-22T06:39:30.879Z,978.6
2018-07-22T06:40:33.372Z,978.7
2018-07-22T06:41:34.600Z,978.7
2018-07-22T06:42:35.793Z,978.7
2018-07-22T06:43:37.275Z,978.7
2018-07-22T06:44:38.776Z,978.6
2018-07-22T06:45:39.982Z,978.4
2018-07-22T06:46:41.444Z,978.4
2018-07-22T06:47:42.571Z,978.4
2018-07-22T06:48:43.768Z,978.4
2018-07-22T06:49:44.955Z,978.4
2018-07-22T06:50:46.198Z,978.5
2018-07-22T06:51:47.482Z,978.4
2018-07-22T06:52:48.705Z,978.5
2018-07-22T06:53:50.287Z,978.5
2018-07-22T06:54:51.454Z,978.5
2018-07-22T06:55:52.655Z,978.5
2018-07-22T06:56:54.283Z,978.5
2018-07-22T06:57:55.732Z,978.5
2018-07-22T06:58:56.951Z,978.5
2018-07-22T07:00:00.532Z,978.6
2018-07-22T07:01:04.153Z,978.8
2018-07-22T07:02:05.407Z,978.9
2018-07-22T07:03:06.584Z,979
2018-07-22T07:04:07.773Z,979
2018-07-22T07:05:11.002Z,979.1
2018-07-22T07:06:12.420Z,979.1
2018-07-22T07:07:18.691Z,979.2
2018-07-22T07:08:23.163Z,979.1
2018-07-22T07:09:27.798Z,979.2
2018-07-22T07:10:29.239Z,979.3
2018-07-22T07:11:30.480Z,979.3
2018-07-22T07:12:32.515Z,979.3
2018-07-22T07:13:37.313Z,979.3
2018-07-22T07:14:38.506Z,979.4
2018-07-22T07:15:39.950Z,979.4
2018-07-22T07:16:41.324Z,979.3
2018-07-22T07:17:42.791Z,979.2
2018-07-22T07:18:44.815Z,979.2
2018-07-22T07:19:46.052Z,979.3
2018-07-22T07:20:49.835Z,979.3
2018-07-22T07:21:50.968Z,979.2
2018-07-22T07:22:53.213Z,979.1
2018-07-22T07:23:57.269Z,979.1
2018-07-22T07:24:58.496Z,979.2
2018-07-22T07:25:59.738Z,979.3
2018-07-22T07:27:00.954Z,979.4
2018-07-22T07:28:02.705Z,979.4
2018-07-22T07:29:11.443Z,979.5
2018-07-22T07:30:12.672Z,979.5
2018-07-22T07:31:13.865Z,979.5
2018-07-22T07:32:15.305Z,979.6
2018-07-22T07:33:16.512Z,979.6
2018-07-22T07:34:22.679Z,979.6
2018-07-22T07:35:31.280Z,979.6
2018-07-22T07:36:32.744Z,979.5
2018-07-22T07:37:33.915Z,979.6
2018-07-22T07:38:35.150Z,979.7
2018-07-22T07:39:36.383Z,979.5
2018-07-22T07:40:37.900Z,979.5
2018-07-22T07:41:43.167Z,979.5
2018-07-22T07:42:44.484Z,979.3
2018-07-22T07:43:45.748Z,979.4
2018-07-22T07:44:47.432Z,979.4
2018-07-22T07:45:48.627Z,979.4
2018-07-22T07:46:49.866Z,979.5
2018-07-22T07:47:51.083Z,979.6
2018-07-22T07:48:52.324Z,979.7
2018-07-22T07:49:53.499Z,979.7
2018-07-22T07:50:57.224Z,979.7
2018-07-22T07:51:59.403Z,979.7
2018-07-22T07:53:02.344Z,979.6
2018-07-22T07:54:05.158Z,979.6
2018-07-22T07:55:06.392Z,979.7
2018-07-22T07:56:07.592Z,979.7
2018-07-22T07:57:08.771Z,979.6
2018-07-22T07:58:10.695Z,979.7
2018-07-22T07:59:11.911Z,979.7
2018-07-22T08:00:13.339Z,979.6
2018-07-22T08:01:14.552Z,979.7
2018-07-22T08:02:15.884Z,979.6
2018-07-22T08:03:17.056Z,979.7
2018-07-22T08:04:18.355Z,979.7
2018-07-22T08:05:23.275Z,979.6
2018-07-22T08:06:24.716Z,979.5
2018-07-22T08:07:27.172Z,979.7
2018-07-22T08:08:28.390Z,979.6
2018-07-22T08:09:29.625Z,979.7
2018-07-22T08:10:33.312Z,979.7
2018-07-22T08:11:34.522Z,979.7
2018-07-22T08:12:35.695Z,979.7
2018-07-22T08:13:36.863Z,979.7
2018-07-22T08:14:38.747Z,979.7
2018-07-22T08:15:39.960Z,979.7
2018-07-22T08:16:41.160Z,979.7
2018-07-22T08:17:42.380Z,979.7
2018-07-22T08:18:43.608Z,979.7
2018-07-22T08:19:44.823Z,979.8
2018-07-22T08:20:46.020Z,979.8
2018-07-22T08:21:47.375Z,979.8
2018-07-22T08:22:48.452Z,979.8
2018-07-22T08:23:49.634Z,979.8
2018-07-22T08:24:50.944Z,979.7
2018-07-22T08:25:52.144Z,979.8
2018-07-22T08:26:55.271Z,979.8
2018-07-22T08:27:58.196Z,979.7
2018-07-22T08:29:00.252Z,979.7
2018-07-22T08:30:02.378Z,979.6
2018-07-22T08:31:03.565Z,979.6
2018-07-22T08:32:04.768Z,979.7
2018-07-22T08:33:06.197Z,979.7
2018-07-22T08:34:07.636Z,979.6
2018-07-22T08:35:08.867Z,979.7
2018-07-22T08:36:10.095Z,979.7
2018-07-22T08:37:11.275Z,979.8
2018-07-22T08:38:12.457Z,979.7
2018-07-22T08:39:20.836Z,979.7
2018-07-22T08:40:24.584Z,979.7
2018-07-22T08:41:25.793Z,979.7
2018-07-22T08:42:26.975Z,979.6
2018-07-22T08:43:29.183Z,979.5
2018-07-22T08:44:30.388Z,979.5
2018-07-22T08:45:31.820Z,979.5
2018-07-22T08:46:35.452Z,979.5
2018-07-22T08:47:37.160Z,979.5
2018-07-22T08:48:38.324Z,979.6
2018-07-22T08:49:39.511Z,979.6
2018-07-22T08:50:41.327Z,979.7
2018-07-22T08:51:42.796Z,979.7
2018-07-22T08:52:44.254Z,979.6
2018-07-22T08:53:45.735Z,979.7
2018-07-22T08:54:46.971Z,979.6
2018-07-22T08:55:48.202Z,979.6
2018-07-22T08:56:49.391Z,979.6
2018-07-22T08:57:50.576Z,979.7
2018-07-22T08:58:51.816Z,979.7
2018-07-22T08:59:53.294Z,979.7
2018-07-22T09:00:54.782Z,979.6
2018-07-22T09:01:57.193Z,979.6
2018-07-22T09:02:59.289Z,979.7
2018-07-22T09:04:00.543Z,979.6
2018-07-22T09:05:01.780Z,979.7
2018-07-22T09:06:03.277Z,979.6
2018-07-22T09:07:05.747Z,979.7
2018-07-22T09:08:07.007Z,979.6
2018-07-22T09:09:10.295Z,979.6
2018-07-22T09:10:11.487Z,979.6
2018-07-22T09:11:14.888Z,979.5
2018-07-22T09:12:17.122Z,979.4
2018-07-22T09:13:18.320Z,979.5
2018-07-22T09:14:22.098Z,979.6
2018-07-22T09:15:23.332Z,979.5
2018-07-22T09:16:24.912Z,979.6
2018-07-22T09:17:26.122Z,979.5
2018-07-22T09:18:28.346Z,979.6
2018-07-22T09:19:29.537Z,979.5
2018-07-22T09:20:30.741Z,979.6
2018-07-22T09:21:32.011Z,979.5
2018-07-22T09:22:35.599Z,979.5
2018-07-22T09:23:37.034Z,979.4
2018-07-22T09:24:38.263Z,979.5
2018-07-22T09:25:39.440Z,979.5
2018-07-22T09:26:40.694Z,979.3
2018-07-22T09:27:41.882Z,979.5
2018-07-22T09:28:43.190Z,979.4
2018-07-22T09:29:44.455Z,979.3
2018-07-22T09:30:45.629Z,979.4
2018-07-22T09:31:49.843Z,979.5
2018-07-22T09:32:53.675Z,979.3
2018-07-22T09:33:54.895Z,979.3
2018-07-22T09:34:56.332Z,979.3
2018-07-22T09:36:07.963Z,979.5
2018-07-22T09:37:09.143Z,979.4
2018-07-22T09:38:11.336Z,979.3
2018-07-22T09:39:12.751Z,979.4
2018-07-22T09:40:13.958Z,979.4
2018-07-22T09:41:16.172Z,979.1
2018-07-22T09:42:18.414Z,979.4
2018-07-22T09:43:20.004Z,979.5
2018-07-22T09:44:21.181Z,979.4
2018-07-22T09:45:22.376Z,979.5
2018-07-22T09:46:23.927Z,979.4
2018-07-22T09:47:25.207Z,979.4
2018-07-22T09:48:26.380Z,979.3
2018-07-22T09:49:27.843Z,979.4
2018-07-22T09:50:30.029Z,979.4
2018-07-22T09:51:31.224Z,979.5
2018-07-22T09:52:33.843Z,979.6
2018-07-22T09:53:35.139Z,979.5
2018-07-22T09:54:36.331Z,979.5
2018-07-22T09:55:37.516Z,979.4
2018-07-22T09:56:38.703Z,979.4
2018-07-22T09:57:41.569Z,979.5
2018-07-22T09:58:42.817Z,979.5
2018-07-22T09:59:44.036Z,979.5
2018-07-22T10:00:45.263Z,979.5
2018-07-22T10:01:46.503Z,979.4
2018-07-22T10:02:51.866Z,979.3
2018-07-22T10:03:53.150Z,979.4
2018-07-22T10:04:54.449Z,979.4
2018-07-22T10:05:55.589Z,979.4
2018-07-22T10:06:56.845Z,979.5
2018-07-22T10:07:59.273Z,979.4
2018-07-22T10:09:00.476Z,979.4
2018-07-22T10:10:01.710Z,979.4
2018-07-22T10:11:04.906Z,979.4
2018-07-22T10:12:08.425Z,979.2
2018-07-22T10:13:14.568Z,979.3
2018-07-22T10:14:15.915Z,979.3
2018-07-22T10:15:17.129Z,979.3
2018-07-22T10:16:18.324Z,979.3
2018-07-22T10:17:21.111Z,979.2
2018-07-22T10:18:22.349Z,979.3
2018-07-22T10:19:23.796Z,979.4
2018-07-22T10:20:25.025Z,979.3
2018-07-22T10:21:28.325Z,979.3
2018-07-22T10:22:29.541Z,979.2
2018-07-22T10:23:30.890Z,979.3
2018-07-22T10:24:34.292Z,979.2
2018-07-22T10:25:35.863Z,979.2
2018-07-22T10:26:39.849Z,979.1
2018-07-22T10:27:41.593Z,979.2
2018-07-22T10:28:42.873Z,979.2
2018-07-22T10:29:44.457Z,979.1
2018-07-22T10:30:45.885Z,979.1
2018-07-22T10:31:47.067Z,979.1
2018-07-22T10:32:50.335Z,979
2018-07-22T10:33:52.640Z,979.1
2018-07-22T10:34:53.962Z,979.1
2018-07-22T10:35:57.557Z,979.1
2018-07-22T10:36:58.731Z,979
2018-07-22T10:37:59.941Z,979
2018-07-22T10:39:01.312Z,979.1
2018-07-22T10:40:02.540Z,979
2018-07-22T10:41:03.851Z,979.1
2018-07-22T10:42:08.188Z,979.1
2018-07-22T10:43:09.424Z,979
2018-07-22T10:44:13.556Z,978.9
2018-07-22T10:45:15.252Z,979
2018-07-22T10:46:17.920Z,979
2018-07-22T10:47:21.145Z,978.8
2018-07-22T10:48:22.507Z,978.9
2018-07-22T10:49:23.875Z,978.9
2018-07-22T10:50:25.072Z,978.9
2018-07-22T10:51:26.294Z,978.9
2018-07-22T10:52:28.314Z,978.9
2018-07-22T10:53:29.642Z,979
2018-07-22T10:54:30.883Z,979
2018-07-22T10:55:32.109Z,979
2018-07-22T10:56:33.571Z,979
2018-07-22T10:57:37.183Z,979
2018-07-22T10:58:38.372Z,979
2018-07-22T10:59:39.586Z,979
2018-07-22T11:00:40.795Z,978.9
2018-07-22T11:01:42.004Z,978.9
2018-07-22T11:02:43.212Z,979
2018-07-22T11:03:44.712Z,979
2018-07-22T11:04:49.175Z,979
2018-07-22T11:05:53.724Z,979
2018-07-22T11:06:54.927Z,979
2018-07-22T11:07:59.610Z,978.9
2018-07-22T11:09:00.822Z,978.9
2018-07-22T11:10:04.934Z,978.8
2018-07-22T11:11:09.543Z,978.8
2018-07-22T11:12:13.227Z,978.7
2018-07-22T11:13:14.637Z,978.8
2018-07-22T11:14:15.879Z,978.8
2018-07-22T11:15:18.296Z,978.8
2018-07-22T11:16:25.522Z,978.8
2018-07-22T11:17:26.788Z,978.7
2018-07-22T11:18:28.260Z,978.8
2018-07-22T11:19:29.513Z,978.7
2018-07-22T11:20:30.775Z,978.8
2018-07-22T11:21:31.993Z,978.7
2018-07-22T11:22:33.402Z,978.7
2018-07-22T11:23:37.210Z,978.8
2018-07-22T11:24:38.426Z,978.8
2018-07-22T11:25:40.751Z,978.7
2018-07-22T11:26:42.147Z,978.7
2018-07-22T11:27:43.468Z,978.7
2018-07-22T11:28:44.773Z,978.8
2018-07-22T11:29:45.889Z,978.7
2018-07-22T11:30:49.539Z,978.4
2018-07-22T11:31:50.759Z,978.5
2018-07-22T11:33:12.515Z,978.6
2018-07-22T11:34:18.534Z,978.6
2018-07-22T11:35:19.704Z,978.6
2018-07-22T11:36:22.699Z,978.6
2018-07-22T11:37:36.019Z,978.5
2018-07-22T11:38:37.485Z,978.6
2018-07-22T11:39:39.694Z,978.6
2018-07-22T11:40:43.316Z,978.6
2018-07-22T11:41:46.987Z,978.6
2018-07-22T11:42:48.878Z,978.6
2018-07-22T11:43:50.547Z,978.6
2018-07-22T11:44:51.760Z,978.6
2018-07-22T11:45:53.539Z,978.7
2018-07-22T11:46:54.806Z,978.7
2018-07-22T11:47:56.016Z,978.5
2018-07-22T11:48:57.239Z,978.7
2018-07-22T11:49:59.427Z,978.7
2018-07-22T11:51:00.639Z,978.6
2018-07-22T11:52:02.318Z,978.7
2018-07-22T11:53:04.820Z,978.6
2018-07-22T11:54:07.253Z,978.6
2018-07-22T11:55:08.499Z,978.5
2018-07-22T11:56:09.684Z,978.5
2018-07-22T11:57:10.955Z,978.5
2018-07-22T11:58:12.220Z,978.5
2018-07-22T11:59:13.445Z,978.5
2018-07-22T12:00:15.037Z,978.6
2018-07-22T12:01:17.600Z,978.6
2018-07-22T12:02:19.003Z,978.5
2018-07-22T12:03:22.324Z,978.6
2018-07-22T12:04:24.864Z,978.6
2018-07-22T12:05:26.147Z,978.6
2018-07-22T12:06:27.364Z,978.5
2018-07-22T12:07:28.644Z,978.7
2018-07-22T12:08:29.900Z,978.7
2018-07-22T12:09:31.181Z,978.7
2018-07-22T12:10:33.444Z,978.7
2018-07-22T12:11:37.625Z,978.7
2018-07-22T12:12:38.991Z,978.6
2018-07-22T12:13:40.103Z,978.6
2018-07-22T12:14:43.054Z,978.6
2018-07-22T12:15:44.330Z,978.6
2018-07-22T12:16:45.523Z,978.6
2018-07-22T12:17:46.799Z,978.6
2018-07-22T12:18:48.277Z,978.7
2018-07-22T12:19:49.577Z,978.7
2018-07-22T12:20:53.213Z,978.6
2018-07-22T12:21:54.427Z,978.7
2018-07-22T12:22:55.687Z,978.7
2018-07-22T12:23:56.867Z,978.7
2018-07-22T12:24:58.117Z,978.7
2018-07-22T12:25:59.379Z,978.7
2018-07-22T12:27:00.585Z,978.6
2018-07-22T12:28:02.287Z,978.5
2018-07-22T12:29:03.736Z,978.8
2018-07-22T12:30:05.042Z,978.6
2018-07-22T12:31:06.313Z,978.8
2018-07-22T12:32:07.746Z,978.7
2018-07-22T12:33:09.231Z,978.4
2018-07-22T12:34:10.578Z,978.5
2018-07-22T12:35:12.048Z,978.7
2018-07-22T12:36:14.450Z,978.6
2018-07-22T12:37:15.753Z,978.7
2018-07-22T12:38:17.021Z,978.7
2018-07-22T12:39:18.287Z,978.8
2018-07-22T12:40:19.544Z,978.7
2018-07-22T12:41:26.968Z,978.6
2018-07-22T12:42:30.589Z,978.7
2018-07-22T12:43:32.361Z,978.7
2018-07-22T12:44:33.569Z,978.7
2018-07-22T12:45:34.845Z,978.8
2018-07-22T12:46:36.421Z,978.8
2018-07-22T12:47:38.643Z,978.8
2018-07-22T12:48:41.187Z,978.8
2018-07-22T12:49:42.530Z,978.8
2018-07-22T12:50:43.782Z,978.8
2018-07-22T12:51:45.247Z,978.8
2018-07-22T12:52:46.561Z,978.7
2018-07-22T12:53:48.541Z,978.8
2018-07-22T12:54:52.143Z,978.6
2018-07-22T12:55:53.404Z,978.7
2018-07-22T12:56:57.053Z,978.8
2018-07-22T12:57:58.276Z,978.7
2018-07-22T12:58:59.536Z,978.7
2018-07-22T13:00:03.255Z,978.7
2018-07-22T13:01:04.552Z,978.7
2018-07-22T13:02:08.336Z,978.7
2018-07-22T13:03:09.879Z,978.7
2018-07-22T13:04:11.307Z,978.8
2018-07-22T13:05:12.731Z,978.6
2018-07-22T13:06:16.841Z,978.8
2018-07-22T13:07:21.404Z,978.8
2018-07-22T13:08:22.615Z,978.8
2018-07-22T13:09:25.863Z,978.9
2018-07-22T13:10:27.106Z,978.8
2018-07-22T13:11:28.328Z,978.8
2018-07-22T13:12:29.616Z,978.7
2018-07-22T13:13:32.785Z,978.8
2018-07-22T13:14:35.233Z,978.8
2018-07-22T13:15:36.483Z,978.8
2018-07-22T13:16:37.682Z,978.8
2018-07-22T13:17:38.938Z,978.8
2018-07-22T13:18:40.102Z,978.7
2018-07-22T13:19:41.840Z,978.6
2018-07-22T13:20:46.627Z,978.7